Flight Track Log - Related Links

Times and Time Zones

All times are in EDT time to prevent confusion due to time zone crossing. See the EGF1653 flight status page for this flight to view local times or setup timezone preferences in your user account.

Time Position Orientation Groundspeed Altitude Reporting Facility
EDT Latitude Longitude Course Direction KTS MPH feet Rate Location/Type
Wed 02:38:00 PM 36.0786 -79.0498 314° West  Level Estimated
Wed 02:39:00 PM 36.1455 -79.1375 313° West  Level Estimated
Wed 02:40:00 PM 36.2123 -79.2254 313° West  Level Estimated
Wed 02:41:00 PM 36.2790 -79.3135 313° West  Level Estimated
Wed 02:42:00 PM 36.3457 -79.4016 313° West  Level Estimated
Wed 02:43:00 PM 36.4123 -79.4900 313° West  Level Estimated
Wed 02:44:00 PM 36.4788 -79.5785 313° West  Level Estimated
Wed 02:45:00 PM 36.5453 -79.6671 313° West  Level Estimated
Wed 02:46:00 PM 36.6117 -79.7559 313° West  Level Estimated
Wed 02:47:00 PM 36.6780 -79.8448 313° West  Level Estimated
Wed 02:48:00 PM 36.7443 -79.9340 313° West  Level Estimated
Wed 02:49:00 PM 36.8105 -80.0232 313° West  Level Estimated
Wed 02:50:00 PM 36.8767 -80.1126 313° West  Level Estimated
Wed 02:51:00 PM 36.9427 -80.2022 313° West  Level Estimated
Wed 02:52:00 PM 37.0088 -80.2919 313° West  Level Estimated
Wed 02:53:00 PM 37.0747 -80.3818 313° West  Level Estimated
Wed 02:54:00 PM 37.1406 -80.4718 313° West  Level Estimated
Wed 02:55:00 PM 37.2064 -80.5620 313° West  Level Estimated
Wed 02:56:00 PM 37.2721 -80.6523 312° West  Level Estimated
Wed 02:57:00 PM 37.3378 -80.7428 312° West  Level Estimated
Wed 02:58:00 PM 37.4034 -80.8335 312° West  Level Estimated
Wed 02:59:00 PM 37.4689 -80.9243 312° West  Level Estimated
Wed 03:00:00 PM 37.5344 -81.0153 312° West  Level Estimated
Wed 03:01:00 PM 37.5998 -81.1064 312° West  Level Estimated
Wed 03:02:00 PM 37.6651 -81.1977 312° West  Level Estimated
Wed 03:03:00 PM 37.7303 -81.2892 312° West  Level Estimated
Wed 03:04:00 PM 37.7955 -81.3808 312° West  Level Estimated
Wed 03:05:00 PM 37.8606 -81.4726 312° West  Level Estimated
Wed 03:06:00 PM 37.9256 -81.5645 312° West  Level Estimated
Wed 03:07:00 PM 37.9906 -81.6566 312° West  Level Estimated
Wed 03:08:00 PM 38.0555 -81.7489 312° West  Level Estimated
Wed 03:09:00 PM 38.1203 -81.8413 312° West  Level Estimated
Wed 03:10:00 PM 38.1851 -81.9339 312° West  Level Estimated
Wed 03:11:00 PM 38.2497 -82.0267 312° West  Level Estimated
Wed 03:12:00 PM 38.3143 -82.1196 312° West  Level Estimated
Wed 03:13:00 PM 38.3789 -82.2127 311° West  Level Estimated
Wed 03:14:00 PM 38.4433 -82.3060 311° West  Level Estimated
Wed 03:15:00 PM 38.5077 -82.3994 311° West  Level Estimated
Wed 03:16:00 PM 38.5720 -82.4930 311° West  Level Estimated
Wed 03:17:00 PM 38.6362 -82.5867 311° West  Level Estimated
Wed 03:18:00 PM 38.7004 -82.6807 311° West  Level Estimated
Wed 03:19:00 PM 38.7645 -82.7748 311° West  Level Estimated
Wed 03:20:00 PM 38.8285 -82.8690 311° West  Level Estimated
Wed 03:21:00 PM 38.8924 -82.9635 311° West  Level Estimated
Wed 03:22:00 PM 38.9562 -83.0581 311° West  Level Estimated
Wed 03:23:00 PM 39.0200 -83.1529 311° West  Level Estimated
Wed 03:24:00 PM 39.0837 -83.2478 311° West  Level Estimated
Wed 03:25:00 PM 39.1473 -83.3429 311° West  Level Estimated
Wed 03:26:00 PM 39.2109 -83.4382 311° West  Level Estimated
Wed 03:27:00 PM 39.2743 -83.5337 311° West  Level Estimated
Wed 03:28:00 PM 39.3377 -83.6293 311° West  Level Estimated
Wed 03:29:00 PM 39.4011 -83.7252 311° West  Level Estimated
Wed 03:30:00 PM 39.4643 -83.8211 310° West  Level Estimated
Wed 03:31:00 PM 39.5274 -83.9173 310° West  Level Estimated
Wed 03:32:00 PM 39.5905 -84.0136 310° West  Level Estimated
Wed 03:33:00 PM 39.6535 -84.1101 310° West  Level Estimated
Wed 03:34:00 PM 39.7164 -84.2068 310° West  Level Estimated
Wed 03:35:00 PM 39.7792 -84.3037 310° West  Level Estimated
Wed 03:36:00 PM 39.8420 -84.4007 310° West  Level Estimated
Wed 03:37:00 PM 39.9047 -84.4979 310° West  Level Estimated
Wed 03:38:00 PM 39.9672 -84.5953 310° West  Level Estimated
Wed 03:39:00 PM 40.0298 -84.6929 310° West  Level Estimated
Wed 03:40:00 PM 40.0922 -84.7906 310° West  Level Estimated
Wed 03:41:00 PM 40.1545 -84.8886 310° West  Level Estimated
Wed 03:42:00 PM 40.2168 -84.9867 310° West  Level Estimated
Wed 03:43:00 PM 40.2790 -85.0850 310° West  Level Estimated
Wed 03:44:00 PM 40.3411 -85.1834 310° West  Level Estimated
Wed 03:45:00 PM 40.4031 -85.2821 310° West  Level Estimated
Wed 03:46:00 PM 40.4650 -85.3809 309° West  Level Estimated
Wed 03:47:00 PM 40.5268 -85.4799 309° West  Level Estimated
Wed 03:48:00 PM 40.5886 -85.5791 309° West  Level Estimated
Wed 03:49:00 PM 40.6503 -85.6785 309° West  Level Estimated
Wed 03:50:00 PM 40.7119 -85.7781 309° West  Level Estimated
Wed 03:51:00 PM 40.7734 -85.8778 309° West  Level Estimated
Wed 03:52:00 PM 40.8348 -85.9778 309° West  Level Estimated
Wed 03:53:00 PM 40.8961 -86.0779 309° West  Level Estimated
Wed 03:54:00 PM 40.9574 -86.1782 309° West  Level Estimated
Wed 03:55:00 PM 41.0185 -86.2787 309° West  Level Estimated
Wed 03:56:00 PM 41.0796 -86.3794 309° West  Level Estimated
Wed 03:57:00 PM 41.1406 -86.4802 309° West  Level Estimated
Wed 03:58:00 PM 41.2015 -86.5813 309° West  Level Estimated
Wed 03:59:00 PM 41.2622 -86.6825 309° West  Level Estimated
Wed 04:00:00 PM 41.3230 -86.7840 309° West  Level Estimated
Wed 04:01:00 PM 41.3836 -86.8856 309° West  Level Estimated
Wed 04:02:00 PM 41.4441 -86.9874 308° West  Level Estimated
Wed 04:03:00 PM 41.5046 -87.0894 308° West  Level Estimated
Wed 04:04:00 PM 41.5649 -87.1916 308° West  Level Estimated
Wed 04:05:00 PM 41.6252 -87.2940 308° West  Level Estimated
Wed 04:06:00 PM 41.6854 -87.3965 308° West  Level Estimated
Wed 04:07:00 PM 41.7455 -87.4993 308° West  Level Estimated
Wed 04:08:00 PM 41.8055 -87.6023 308° West  Level Estimated
Wed 04:09:00 PM 41.8654 -87.7054 308° West  Level Estimated
Wed 04:10:00 PM 41.9252 -87.8087 308° West  Level Estimated
Wed 04:11:00 PM 41.9817 -87.9067 308° West  Level Estimated

Login

Don't have an account? Register now (free) for customized features, flight alerts, and more!